createdAt,value
2022-10-25T00:03:31.945Z,99554.91
2022-10-25T00:08:33.638Z,99558.94
2022-10-25T00:13:35.369Z,99566.38
2022-10-25T00:18:37.045Z,99564.81
2022-10-25T00:23:38.984Z,99566.81
2022-10-25T00:28:40.896Z,99579.06
2022-10-25T00:33:43.491Z,99580.69
2022-10-25T00:38:46.344Z,99565.50
2022-10-25T00:43:53.767Z,99568.03
2022-10-25T00:49:15.560Z,99569.91
2022-10-25T00:59:30.937Z,99573.25
2022-10-25T01:04:33.591Z,99574.56
2022-10-25T01:09:37.789Z,99569.91
2022-10-25T01:14:44.268Z,99561.09
2022-10-25T01:20:12.692Z,99550.16
2022-10-25T01:25:34.641Z,99548.47
2022-10-25T01:30:51.308Z,99548.06
2022-10-25T01:36:24.980Z,99556.28
2022-10-25T01:41:54.592Z,99545.25
2022-10-25T01:47:18.656Z,99559.84
2022-10-25T01:52:22.318Z,99559.44
2022-10-25T01:57:42.544Z,99546.31
2022-10-25T02:02:57.449Z,99560.00
2022-10-25T02:08:31.765Z,99557.28
2022-10-25T02:13:48.970Z,99553.81
2022-10-25T02:18:55.634Z,99551.38
2022-10-25T02:23:59.894Z,99552.38
2022-10-25T02:29:04.719Z,99557.44
2022-10-25T02:34:06.680Z,99555.38
2022-10-25T02:39:08.618Z,99558.53
2022-10-25T02:44:10.292Z,99547.50
2022-10-25T02:49:12.038Z,99557.72
2022-10-25T02:54:13.732Z,99559.22
2022-10-25T02:59:15.387Z,99555.66
2022-10-25T03:04:17.152Z,99562.28
2022-10-25T03:09:18.813Z,99566.47
2022-10-25T03:14:20.486Z,99560.78
2022-10-25T03:19:22.169Z,99572.22
2022-10-25T03:24:23.902Z,99578.66
2022-10-25T03:29:25.553Z,99575.25
2022-10-25T03:34:27.317Z,99585.69
2022-10-25T03:39:28.989Z,99588.59
2022-10-25T03:44:30.708Z,99582.19
2022-10-25T03:49:32.368Z,99581.88
2022-10-25T03:54:34.937Z,99600.66
2022-10-25T03:59:36.760Z,99596.50
2022-10-25T04:04:38.978Z,99602.63
2022-10-25T04:09:40.725Z,99614.19
2022-10-25T04:14:42.446Z,99610.97
2022-10-25T04:19:44.127Z,99612.81
2022-10-25T04:24:46.004Z,99625.75
2022-10-25T04:29:47.703Z,99633.09
2022-10-25T04:34:49.403Z,99622.53
2022-10-25T04:39:51.076Z,99617.91
2022-10-25T04:44:52.755Z,99605.78
2022-10-25T04:49:54.428Z,99613.84
2022-10-25T04:54:56.492Z,99620.00
2022-10-25T04:59:58.224Z,99624.34
2022-10-25T05:04:59.921Z,99627.75
2022-10-25T05:10:01.593Z,99627.97
2022-10-25T05:15:03.701Z,99629.94
2022-10-25T05:20:06.534Z,99639.94
2022-10-25T05:25:08.485Z,99633.31
2022-10-25T05:30:10.958Z,99648.63
2022-10-25T05:35:12.621Z,99656.91
2022-10-25T05:40:14.362Z,99657.69
2022-10-25T05:45:16.158Z,99660.75
2022-10-25T05:50:17.831Z,99665.88
2022-10-25T05:55:19.500Z,99676.72
2022-10-25T06:00:21.381Z,99680.34
2022-10-25T06:05:23.045Z,99685.22
2022-10-25T06:10:24.723Z,99690.22
2022-10-25T06:15:26.393Z,99698.94
2022-10-25T06:20:28.152Z,99709.03
2022-10-25T06:25:29.946Z,99725.81
2022-10-25T06:30:33.184Z,99718.69
2022-10-25T06:35:34.998Z,99723.44
2022-10-25T06:40:36.955Z,99722.84
2022-10-25T06:45:38.616Z,99722.84
2022-10-25T06:50:40.267Z,99731.56
2022-10-25T06:55:44.032Z,99732.34
2022-10-25T07:00:47.417Z,99744.50
2022-10-25T07:05:51.307Z,99733.38
2022-10-25T07:10:55.076Z,99742.72
2022-10-25T07:16:04.754Z,99736.06
2022-10-25T07:21:12.022Z,99735.31
2022-10-25T07:26:17.860Z,99743.88
2022-10-25T07:31:22.581Z,99739.88
2022-10-25T07:36:24.320Z,99753.03
2022-10-25T07:41:26.497Z,99753.03
2022-10-25T07:46:28.249Z,99747.03
2022-10-25T07:51:29.924Z,99752.22
2022-10-25T07:56:31.602Z,99744.72
2022-10-25T08:01:33.329Z,99743.03
2022-10-25T08:06:36.217Z,99755.75
2022-10-25T08:11:37.921Z,99756.59
2022-10-25T08:16:39.564Z,99758.28
2022-10-25T08:21:41.226Z,99774.94
2022-10-25T08:26:42.892Z,99770.81
2022-10-25T08:31:44.570Z,99771.19
2022-10-25T08:36:48.905Z,99775.53
2022-10-25T08:42:00.619Z,99769.78
2022-10-25T08:47:18.965Z,99775.09
2022-10-25T08:52:26.614Z,99781.72
2022-10-25T08:57:32.722Z,99777.38
2022-10-25T09:02:48.573Z,99787.22
2022-10-25T09:08:03.437Z,99781.97
2022-10-25T09:18:48.322Z,99792.13
2022-10-25T09:23:59.053Z,99801.00
2022-10-25T09:29:16.448Z,99798.66
2022-10-25T09:34:21.021Z,99803.56
2022-10-25T09:39:42.953Z,99808.16
2022-10-25T09:44:54.464Z,99827.94
2022-10-25T09:50:05.187Z,99821.50
2022-10-25T09:55:23.877Z,99826.16
2022-10-25T10:00:25.866Z,99813.00
2022-10-25T10:05:28.483Z,99823.97
2022-10-25T10:10:34.842Z,99834.03
2022-10-25T10:15:48.682Z,99820.56
2022-10-25T10:21:06.253Z,99822.88
2022-10-25T10:26:35.773Z,99828.97
2022-10-25T10:31:40.722Z,99834.00
2022-10-25T10:36:45.313Z,99831.22
2022-10-25T10:42:16.941Z,99841.72
2022-10-25T10:47:21.401Z,99821.97
2022-10-25T10:53:06.024Z,99843.03
2022-10-25T10:58:16.866Z,99837.41
2022-10-25T11:03:42.391Z,99834.78
2022-10-25T11:09:04.512Z,99833.81
2022-10-25T11:14:14.618Z,99834.91
2022-10-25T11:19:42.081Z,99830.88
2022-10-25T11:25:14.430Z,99840.38
2022-10-25T11:30:19.476Z,99843.75
2022-10-25T11:36:01.853Z,99835.25
2022-10-25T11:41:28.868Z,99848.56
2022-10-25T11:46:51.668Z,99838.31
2022-10-25T11:52:05.269Z,99834.72
2022-10-25T11:57:45.138Z,99840.38
2022-10-25T12:03:08.470Z,99828.53
2022-10-25T12:08:13.253Z,99843.41
2022-10-25T12:13:30.867Z,99823.81
2022-10-25T12:18:38.676Z,99832.56
2022-10-25T12:23:47.580Z,99836.38
2022-10-25T12:28:51.065Z,99842.34
2022-10-25T12:34:01.821Z,99847.69
2022-10-25T12:39:14.105Z,99844.69
2022-10-25T12:44:47.610Z,99849.69
2022-10-25T12:50:27.063Z,99847.06
2022-10-25T12:56:06.006Z,99846.16
2022-10-25T13:01:15.815Z,99838.13
2022-10-25T13:06:37.813Z,99842.97
2022-10-25T13:11:46.734Z,99834.91
2022-10-25T13:16:48.476Z,99839.81
2022-10-25T13:21:53.459Z,99838.38
2022-10-25T13:27:13.794Z,99850.16
2022-10-25T13:32:24.742Z,99841.38
2022-10-25T13:37:32.545Z,99847.81
2022-10-25T13:42:36.930Z,99859.53
2022-10-25T13:47:44.444Z,99846.22
2022-10-25T13:53:13.973Z,99870.47
2022-10-25T13:58:32.247Z,99860.25
2022-10-25T14:03:45.457Z,99861.81
2022-10-25T14:08:53.543Z,99853.22
2022-10-25T14:14:16.760Z,99859.56
2022-10-25T14:19:23.526Z,99862.94
2022-10-25T14:24:25.548Z,99851.47
2022-10-25T14:29:29.590Z,99855.59
2022-10-25T14:34:31.743Z,99869.72
2022-10-25T14:39:34.539Z,99860.72
2022-10-25T14:44:48.722Z,99868.00
2022-10-25T14:49:50.455Z,99862.38
2022-10-25T14:54:59.778Z,99856.59
2022-10-25T15:00:03.893Z,99861.31
2022-10-25T15:05:07.038Z,99870.75
2022-10-25T15:10:35.711Z,99863.59
2022-10-25T15:15:44.926Z,99868.03
2022-10-25T15:20:49.745Z,99878.75
2022-10-25T15:25:51.418Z,99875.84
2022-10-25T15:31:04.008Z,99873.50
2022-10-25T15:36:06.071Z,99866.59
2022-10-25T15:41:08.645Z,99863.44
2022-10-25T15:46:34.381Z,99867.38
2022-10-25T15:51:41.074Z,99870.81
2022-10-25T15:56:43.383Z,99872.72
2022-10-25T16:01:48.539Z,99877.22
2022-10-25T16:06:50.305Z,99879.28
2022-10-25T16:11:54.421Z,99874.94
2022-10-25T16:16:59.022Z,99883.34
2022-10-25T16:22:00.789Z,99887.03
2022-10-25T16:27:02.459Z,99891.66
2022-10-25T16:32:07.186Z,99895.25
2022-10-25T16:37:11.748Z,99899.91
2022-10-25T16:42:31.499Z,99902.66
2022-10-25T16:47:33.216Z,99904.81
2022-10-25T16:52:34.918Z,99910.97
2022-10-25T16:57:36.566Z,99919.66
2022-10-25T17:02:41.105Z,99925.06
2022-10-25T17:07:45.733Z,99921.50
2022-10-25T17:13:03.538Z,99930.97
2022-10-25T17:18:05.273Z,99936.44
2022-10-25T17:23:06.960Z,99946.31
2022-10-25T17:28:08.691Z,99950.94
2022-10-25T17:33:10.347Z,99955.75
2022-10-25T17:38:12.092Z,99949.25
2022-10-25T17:43:15.397Z,99966.50
2022-10-25T17:48:17.066Z,99959.34
2022-10-25T17:53:18.742Z,99959.53
2022-10-25T17:58:20.401Z,99965.88
2022-10-25T18:03:22.062Z,99968.41
2022-10-25T18:08:23.741Z,99967.34
2022-10-25T18:13:27.101Z,99965.09
2022-10-25T18:18:29.497Z,99965.94
2022-10-25T18:23:31.205Z,99969.88
2022-10-25T18:28:34.042Z,99969.47
2022-10-25T18:33:38.172Z,99972.56
2022-10-25T18:38:39.872Z,99971.00
2022-10-25T18:43:41.620Z,99968.78
2022-10-25T18:48:45.221Z,99970.66
2022-10-25T18:53:47.205Z,99967.97
2022-10-25T18:58:49.210Z,99975.00
2022-10-25T19:03:51.212Z,99978.06
2022-10-25T19:08:54.450Z,99974.50
2022-10-25T19:13:56.607Z,99972.00
2022-10-25T19:19:07.032Z,99967.09
2022-10-25T19:24:11.908Z,99972.34
2022-10-25T19:29:13.674Z,99975.88
2022-10-25T19:34:15.327Z,99972.16
2022-10-25T19:39:17.010Z,99978.56
2022-10-25T19:44:18.954Z,99972.34
2022-10-25T19:49:20.636Z,99977.75
2022-10-25T19:54:22.495Z,99979.22
2022-10-25T19:59:24.274Z,99985.91
2022-10-25T20:04:26.053Z,99985.06
2022-10-25T20:09:27.746Z,99987.31
2022-10-25T20:14:30.931Z,99987.97
2022-10-25T20:19:32.628Z,99994.69
2022-10-25T20:24:34.326Z,99994.22
2022-10-25T20:29:35.986Z,99994.53
2022-10-25T20:34:37.652Z,99978.75
2022-10-25T20:39:39.309Z,99987.28
2022-10-25T20:44:40.989Z,99995.00
2022-10-25T20:49:42.640Z,99994.50
2022-10-25T20:54:44.370Z,99995.19
2022-10-25T20:59:47.316Z,99993.16
2022-10-25T21:04:53.731Z,99999.47
2022-10-25T21:09:55.694Z,99997.78
2022-10-25T21:14:57.426Z,100005.34
2022-10-25T21:19:59.086Z,99999.03
2022-10-25T21:25:00.752Z,100011.66
2022-10-25T21:30:02.444Z,100007.81
2022-10-25T21:35:04.398Z,100006.09
2022-10-25T21:40:06.725Z,100012.09
2022-10-25T21:45:09.929Z,100009.06
2022-10-25T21:50:11.625Z,100007.03
2022-10-25T21:55:13.306Z,100019.09
2022-10-25T22:00:15.126Z,100009.31
2022-10-25T22:05:16.797Z,100017.50
2022-10-25T22:10:18.445Z,100009.81
2022-10-25T22:15:20.200Z,100019.31
2022-10-25T22:20:21.862Z,100014.13
2022-10-25T22:25:23.561Z,100013.34
2022-10-25T22:30:25.245Z,100014.13
2022-10-25T22:35:26.950Z,100010.91
2022-10-25T22:40:29.003Z,100007.22
2022-10-25T22:45:30.857Z,100010.91
2022-10-25T22:50:32.509Z,100006.84
2022-10-25T22:55:34.173Z,99997.03
2022-10-25T23:00:35.835Z,100007.69
2022-10-25T23:05:37.484Z,100001.28
2022-10-25T23:10:39.218Z,100010.22
2022-10-25T23:15:40.871Z,100005.59
2022-10-25T23:20:52.554Z,100004.31
2022-10-25T23:25:54.954Z,100004.00
2022-10-25T23:31:07.440Z,100006.16
2022-10-25T23:36:19.466Z,100002.41
2022-10-25T23:41:22.350Z,99999.56
2022-10-25T23:46:24.012Z,100005.84
2022-10-25T23:51:25.741Z,99995.53
2022-10-25T23:56:28.566Z,100004.31
